sensor_id;sensor_type;location;lat;lon;timestamp;pressure;altitude;pressure_sealevel;temperature;humidity
46682;BME280;34101;53.430;-2.224;2023-03-20T00:00:44;101042.90;;;7.88;81.46
46682;BME280;34101;53.430;-2.224;2023-03-20T00:03:13;101035.44;;;7.80;82.05
46682;BME280;34101;53.430;-2.224;2023-03-20T00:05:40;101030.64;;;7.39;84.03
46682;BME280;34101;53.430;-2.224;2023-03-20T00:08:08;101029.45;;;7.78;82.75
46682;BME280;34101;53.430;-2.224;2023-03-20T00:10:37;101032.58;;;7.89;82.67
46682;BME280;34101;53.430;-2.224;2023-03-20T00:13:10;101031.28;;;7.86;82.16
46682;BME280;34101;53.430;-2.224;2023-03-20T00:15:41;101027.56;;;7.88;81.92
46682;BME280;34101;53.430;-2.224;2023-03-20T00:18:13;101030.35;;;7.54;83.35
46682;BME280;34101;53.430;-2.224;2023-03-20T00:20:41;101025.66;;;7.92;82.39
46682;BME280;34101;53.430;-2.224;2023-03-20T00:23:09;101023.26;;;7.70;83.14
46682;BME280;34101;53.430;-2.224;2023-03-20T00:25:37;101018.20;;;7.46;84.34
46682;BME280;34101;53.430;-2.224;2023-03-20T00:28:28;101017.05;;;7.50;84.23
46682;BME280;34101;53.430;-2.224;2023-03-20T00:30:56;101013.03;;;7.74;83.67
46682;BME280;34101;53.430;-2.224;2023-03-20T00:33:30;101010.08;;;7.79;83.34
46682;BME280;34101;53.430;-2.224;2023-03-20T00:35:58;101005.56;;;7.80;82.74
46682;BME280;34101;53.430;-2.224;2023-03-20T00:38:26;101011.83;;;7.97;82.45
46682;BME280;34101;53.430;-2.224;2023-03-20T00:40:54;101006.84;;;7.98;82.44
46682;BME280;34101;53.430;-2.224;2023-03-20T00:45:01;100994.02;;;7.43;84.23
46682;BME280;34101;53.430;-2.224;2023-03-20T00:47:29;100994.59;;;7.82;82.94
46682;BME280;34101;53.430;-2.224;2023-03-20T00:49:58;100992.54;;;7.75;82.79
46682;BME280;34101;53.430;-2.224;2023-03-20T00:52:25;100987.12;;;7.58;83.68
46682;BME280;34101;53.430;-2.224;2023-03-20T00:54:53;100985.40;;;7.68;83.36
46682;BME280;34101;53.430;-2.224;2023-03-20T00:57:24;100980.48;;;7.80;82.99
46682;BME280;34101;53.430;-2.224;2023-03-20T00:59:55;100971.20;;;7.91;82.73
46682;BME280;34101;53.430;-2.224;2023-03-20T01:02:25;100966.26;;;7.77;82.78
46682;BME280;34101;53.430;-2.224;2023-03-20T01:04:55;100961.45;;;7.32;85.21
46682;BME280;34101;53.430;-2.224;2023-03-20T01:07:22;100953.50;;;7.78;83.47
46682;BME280;34101;53.430;-2.224;2023-03-20T01:09:50;100952.96;;;7.88;83.40
46682;BME280;34101;53.430;-2.224;2023-03-20T01:12:17;100951.56;;;7.86;82.80
46682;BME280;34101;53.430;-2.224;2023-03-20T01:14:46;100950.99;;;7.69;84.11
46682;BME280;34101;53.430;-2.224;2023-03-20T01:17:20;100947.96;;;7.81;83.85
46682;BME280;34101;53.430;-2.224;2023-03-20T01:19:47;100948.88;;;7.99;83.16
46682;BME280;34101;53.430;-2.224;2023-03-20T01:22:15;100949.15;;;7.83;83.42
46682;BME280;34101;53.430;-2.224;2023-03-20T01:24:42;100947.86;;;7.81;83.51
46682;BME280;34101;53.430;-2.224;2023-03-20T01:27:13;100947.33;;;7.58;84.63
46682;BME280;34101;53.430;-2.224;2023-03-20T01:29:42;100945.49;;;7.57;84.41
46682;BME280;34101;53.430;-2.224;2023-03-20T01:32:11;100936.82;;;7.79;84.46
46682;BME280;34101;53.430;-2.224;2023-03-20T01:34:39;100940.64;;;7.96;83.26
46682;BME280;34101;53.430;-2.224;2023-03-20T01:37:11;100944.12;;;7.94;83.40
46682;BME280;34101;53.430;-2.224;2023-03-20T01:39:40;100939.39;;;7.86;83.72
46682;BME280;34101;53.430;-2.224;2023-03-20T01:42:10;100934.34;;;8.03;83.35
46682;BME280;34101;53.430;-2.224;2023-03-20T01:44:40;100934.56;;;8.09;82.95
46682;BME280;34101;53.430;-2.224;2023-03-20T01:47:15;100934.95;;;7.77;84.48
46682;BME280;34101;53.430;-2.224;2023-03-20T01:50:47;100932.21;;;7.93;83.55
46682;BME280;34101;53.430;-2.224;2023-03-20T01:53:18;100931.60;;;8.09;83.41
46682;BME280;34101;53.430;-2.224;2023-03-20T01:55:47;100930.14;;;8.09;83.72
46682;BME280;34101;53.430;-2.224;2023-03-20T01:58:20;100928.51;;;8.26;82.90
46682;BME280;34101;53.430;-2.224;2023-03-20T02:00:50;100925.60;;;8.20;83.16
46682;BME280;34101;53.430;-2.224;2023-03-20T02:03:18;100934.13;;;7.86;84.13
46682;BME280;34101;53.430;-2.224;2023-03-20T02:05:46;100916.11;;;8.01;83.54
46682;BME280;34101;53.430;-2.224;2023-03-20T02:08:23;100921.66;;;8.23;83.37
46682;BME280;34101;53.430;-2.224;2023-03-20T02:10:53;100916.20;;;8.37;83.10
46682;BME280;34101;53.430;-2.224;2023-03-20T02:13:22;100913.05;;;8.41;82.55
46682;BME280;34101;53.430;-2.224;2023-03-20T02:16:02;100912.09;;;8.42;82.85
46682;BME280;34101;53.430;-2.224;2023-03-20T02:18:31;100910.81;;;8.34;82.63
46682;BME280;34101;53.430;-2.224;2023-03-20T02:23:55;100901.44;;;8.30;82.73
46682;BME280;34101;53.430;-2.224;2023-03-20T02:26:40;100897.38;;;8.27;83.19
46682;BME280;34101;53.430;-2.224;2023-03-20T02:29:59;100898.23;;;8.19;83.83
46682;BME280;34101;53.430;-2.224;2023-03-20T02:33:13;100892.44;;;8.06;83.93
46682;BME280;34101;53.430;-2.224;2023-03-20T02:36:28;100885.59;;;8.16;83.66
46682;BME280;34101;53.430;-2.224;2023-03-20T02:39:18;100879.11;;;8.24;83.99
46682;BME280;34101;53.430;-2.224;2023-03-20T02:41:55;100881.41;;;7.86;85.55
46682;BME280;34101;53.430;-2.224;2023-03-20T02:44:33;100873.24;;;8.17;84.45
46682;BME280;34101;53.430;-2.224;2023-03-20T02:47:06;100874.10;;;7.66;85.75
46682;BME280;34101;53.430;-2.224;2023-03-20T02:49:51;100873.14;;;8.12;84.94
46682;BME280;34101;53.430;-2.224;2023-03-20T02:52:27;100871.72;;;7.98;85.25
46682;BME280;34101;53.430;-2.224;2023-03-20T02:55:04;100869.80;;;7.92;85.11
46682;BME280;34101;53.430;-2.224;2023-03-20T02:57:42;100868.25;;;7.95;85.27
46682;BME280;34101;53.430;-2.224;2023-03-20T03:00:17;100871.84;;;7.99;85.69
46682;BME280;34101;53.430;-2.224;2023-03-20T03:02:50;100863.34;;;8.05;84.81
46682;BME280;34101;53.430;-2.224;2023-03-20T03:05:22;100863.76;;;8.05;85.30
46682;BME280;34101;53.430;-2.224;2023-03-20T03:07:54;100867.19;;;8.34;84.41
46682;BME280;34101;53.430;-2.224;2023-03-20T03:10:26;100863.24;;;8.07;84.55
46682;BME280;34101;53.430;-2.224;2023-03-20T03:12:57;100862.25;;;8.19;84.71
46682;BME280;34101;53.430;-2.224;2023-03-20T03:15:29;100859.77;;;8.28;84.57
46682;BME280;34101;53.430;-2.224;2023-03-20T03:17:58;100853.75;;;8.40;84.35
46682;BME280;34101;53.430;-2.224;2023-03-20T03:20:29;100855.84;;;8.12;85.06
46682;BME280;34101;53.430;-2.224;2023-03-20T03:22:58;100849.13;;;8.32;84.93
46682;BME280;34101;53.430;-2.224;2023-03-20T03:25:26;100852.42;;;8.22;85.18
46682;BME280;34101;53.430;-2.224;2023-03-20T03:28:01;100852.09;;;8.33;84.92
46682;BME280;34101;53.430;-2.224;2023-03-20T03:30:32;100849.13;;;8.42;84.37
46682;BME280;34101;53.430;-2.224;2023-03-20T03:33:11;100849.53;;;8.38;84.77
46682;BME280;34101;53.430;-2.224;2023-03-20T03:35:40;100845.92;;;8.54;84.24
46682;BME280;34101;53.430;-2.224;2023-03-20T03:38:22;100843.72;;;8.55;84.10
46682;BME280;34101;53.430;-2.224;2023-03-20T03:41:01;100841.37;;;8.40;84.39
46682;BME280;34101;53.430;-2.224;2023-03-20T03:43:36;100836.58;;;8.58;84.41
46682;BME280;34101;53.430;-2.224;2023-03-20T03:46:09;100834.72;;;8.62;84.27
46682;BME280;34101;53.430;-2.224;2023-03-20T03:48:44;100831.68;;;8.43;84.31
46682;BME280;34101;53.430;-2.224;2023-03-20T03:51:16;100831.98;;;8.55;84.76
46682;BME280;34101;53.430;-2.224;2023-03-20T03:53:48;100833.34;;;8.39;84.98
46682;BME280;34101;53.430;-2.224;2023-03-20T03:56:22;100831.06;;;8.32;84.91
46682;BME280;34101;53.430;-2.224;2023-03-20T03:58:52;100828.47;;;8.61;84.82
46682;BME280;34101;53.430;-2.224;2023-03-20T04:01:22;100825.48;;;8.62;84.66
46682;BME280;34101;53.430;-2.224;2023-03-20T04:03:51;100816.72;;;8.68;84.49
46682;BME280;34101;53.430;-2.224;2023-03-20T04:06:19;100819.78;;;8.77;84.29
46682;BME280;34101;53.430;-2.224;2023-03-20T04:08:47;100819.96;;;8.68;84.57
46682;BME280;34101;53.430;-2.224;2023-03-20T04:11:15;100820.78;;;8.55;84.98
46682;BME280;34101;53.430;-2.224;2023-03-20T04:13:44;100819.57;;;8.53;84.47
46682;BME280;34101;53.430;-2.224;2023-03-20T04:16:12;100812.35;;;8.62;85.15
46682;BME280;34101;53.430;-2.224;2023-03-20T04:18:39;100812.25;;;8.61;85.23
46682;BME280;34101;53.430;-2.224;2023-03-20T04:21:07;100813.04;;;8.28;85.62
46682;BME280;34101;53.430;-2.224;2023-03-20T04:23:34;100812.85;;;8.53;85.74
46682;BME280;34101;53.430;-2.224;2023-03-20T04:26:03;100807.37;;;8.74;84.85
46682;BME280;34101;53.430;-2.224;2023-03-20T04:28:30;100810.51;;;8.69;84.86
46682;BME280;34101;53.430;-2.224;2023-03-20T04:31:00;100811.39;;;8.77;84.83
46682;BME280;34101;53.430;-2.224;2023-03-20T04:33:28;100816.04;;;8.94;84.38
46682;BME280;34101;53.430;-2.224;2023-03-20T04:35:56;100815.78;;;8.85;84.36
46682;BME280;34101;53.430;-2.224;2023-03-20T04:38:23;100815.28;;;9.00;84.42
46682;BME280;34101;53.430;-2.224;2023-03-20T04:40:50;100818.74;;;8.89;84.23
46682;BME280;34101;53.430;-2.224;2023-03-20T04:43:18;100813.92;;;8.87;83.82
46682;BME280;34101;53.430;-2.224;2023-03-20T04:45:46;100812.77;;;8.85;84.41
46682;BME280;34101;53.430;-2.224;2023-03-20T04:48:13;100814.51;;;9.04;84.40
46682;BME280;34101;53.430;-2.224;2023-03-20T04:50:41;100810.31;;;9.02;83.90
46682;BME280;34101;53.430;-2.224;2023-03-20T04:53:08;100807.61;;;9.10;83.78
46682;BME280;34101;53.430;-2.224;2023-03-20T04:55:35;100808.48;;;8.90;84.51
46682;BME280;34101;53.430;-2.224;2023-03-20T04:58:03;100803.47;;;8.63;85.57
46682;BME280;34101;53.430;-2.224;2023-03-20T05:00:31;100802.87;;;8.96;85.07
46682;BME280;34101;53.430;-2.224;2023-03-20T05:02:58;100803.34;;;9.15;84.44
46682;BME280;34101;53.430;-2.224;2023-03-20T05:05:25;100801.11;;;9.18;83.94
46682;BME280;34101;53.430;-2.224;2023-03-20T05:07:53;100799.67;;;8.60;86.01
46682;BME280;34101;53.430;-2.224;2023-03-20T05:10:21;100800.34;;;8.91;85.64
46682;BME280;34101;53.430;-2.224;2023-03-20T05:12:48;100794.34;;;9.05;85.00
46682;BME280;34101;53.430;-2.224;2023-03-20T05:15:15;100797.50;;;9.23;84.92
46682;BME280;34101;53.430;-2.224;2023-03-20T05:17:42;100793.51;;;9.08;85.35
46682;BME280;34101;53.430;-2.224;2023-03-20T05:20:10;100795.70;;;9.14;85.22
46682;BME280;34101;53.430;-2.224;2023-03-20T05:22:37;100799.52;;;8.90;85.51
46682;BME280;34101;53.430;-2.224;2023-03-20T05:25:05;100792.37;;;9.03;85.68
46682;BME280;34101;53.430;-2.224;2023-03-20T05:27:32;100796.02;;;9.23;85.08
46682;BME280;34101;53.430;-2.224;2023-03-20T05:30:00;100795.22;;;9.24;84.55
46682;BME280;34101;53.430;-2.224;2023-03-20T05:32:27;100793.34;;;9.09;85.33
46682;BME280;34101;53.430;-2.224;2023-03-20T05:34:55;100796.07;;;9.28;85.05
46682;BME280;34101;53.430;-2.224;2023-03-20T05:37:22;100796.15;;;9.45;84.46
46682;BME280;34101;53.430;-2.224;2023-03-20T05:39:49;100798.16;;;9.26;84.87
46682;BME280;34101;53.430;-2.224;2023-03-20T05:42:17;100793.39;;;9.36;84.32
46682;BME280;34101;53.430;-2.224;2023-03-20T05:44:44;100793.29;;;9.42;84.34
46682;BME280;34101;53.430;-2.224;2023-03-20T05:47:12;100792.58;;;9.58;84.04
46682;BME280;34101;53.430;-2.224;2023-03-20T05:49:39;100792.50;;;9.53;84.38
46682;BME280;34101;53.430;-2.224;2023-03-20T05:52:07;100793.60;;;9.51;84.17
46682;BME280;34101;53.430;-2.224;2023-03-20T05:54:34;100791.48;;;9.68;83.70
46682;BME280;34101;53.430;-2.224;2023-03-20T05:57:02;100793.50;;;9.66;83.83
46682;BME280;34101;53.430;-2.224;2023-03-20T05:59:29;100794.60;;;9.73;83.64
46682;BME280;34101;53.430;-2.224;2023-03-20T06:01:56;100794.61;;;9.84;83.25
46682;BME280;34101;53.430;-2.224;2023-03-20T06:04:24;100795.49;;;9.69;83.66
46682;BME280;34101;53.430;-2.224;2023-03-20T06:06:51;100797.13;;;9.52;83.69
46682;BME280;34101;53.430;-2.224;2023-03-20T06:09:19;100794.97;;;9.55;84.01
46682;BME280;34101;53.430;-2.224;2023-03-20T06:11:46;100797.01;;;9.73;83.77
46682;BME280;34101;53.430;-2.224;2023-03-20T06:14:13;100797.11;;;9.84;83.35
46682;BME280;34101;53.430;-2.224;2023-03-20T06:16:41;100794.84;;;9.91;83.12
46682;BME280;34101;53.430;-2.224;2023-03-20T06:19:09;100794.40;;;9.97;82.75
46682;BME280;34101;53.430;-2.224;2023-03-20T06:21:36;100794.08;;;9.69;84.02
46682;BME280;34101;53.430;-2.224;2023-03-20T06:24:04;100793.96;;;9.81;83.82
46682;BME280;34101;53.430;-2.224;2023-03-20T06:26:31;100797.02;;;9.95;83.40
46682;BME280;34101;53.430;-2.224;2023-03-20T06:28:58;100800.40;;;9.93;82.95
46682;BME280;34101;53.430;-2.224;2023-03-20T06:31:25;100802.08;;;9.63;84.00
46682;BME280;34101;53.430;-2.224;2023-03-20T06:33:53;100803.79;;;9.85;83.73
46682;BME280;34101;53.430;-2.224;2023-03-20T06:36:21;100804.59;;;9.89;83.86
46682;BME280;34101;53.430;-2.224;2023-03-20T06:38:48;100809.76;;;9.72;83.97
46682;BME280;34101;53.430;-2.224;2023-03-20T06:41:15;100814.30;;;9.89;83.97
46682;BME280;34101;53.430;-2.224;2023-03-20T06:43:43;100816.83;;;9.80;84.04
46682;BME280;34101;53.430;-2.224;2023-03-20T06:46:10;100820.89;;;9.75;84.20
46682;BME280;34101;53.430;-2.224;2023-03-20T06:48:37;100821.92;;;9.82;84.33
46682;BME280;34101;53.430;-2.224;2023-03-20T06:51:05;100822.46;;;10.00;83.99
46682;BME280;34101;53.430;-2.224;2023-03-20T06:53:32;100823.21;;;10.11;83.77
46682;BME280;34101;53.430;-2.224;2023-03-20T06:56:00;100825.14;;;10.04;83.80
46682;BME280;34101;53.430;-2.224;2023-03-20T06:58:27;100831.07;;;9.98;84.44
46682;BME280;34101;53.430;-2.224;2023-03-20T07:00:55;100831.07;;;9.98;84.11
46682;BME280;34101;53.430;-2.224;2023-03-20T07:03:22;100828.40;;;10.17;83.51
46682;BME280;34101;53.430;-2.224;2023-03-20T07:05:49;100828.32;;;10.28;83.26
46682;BME280;34101;53.430;-2.224;2023-03-20T07:08:17;100831.17;;;9.99;84.13
46682;BME280;34101;53.430;-2.224;2023-03-20T07:10:44;100830.78;;;10.31;83.36
46682;BME280;34101;53.430;-2.224;2023-03-20T07:13:12;100834.93;;;10.32;82.71
46682;BME280;34101;53.430;-2.224;2023-03-20T07:15:39;100837.65;;;10.16;83.22
46682;BME280;34101;53.430;-2.224;2023-03-20T07:18:06;100833.44;;;10.33;83.41
46682;BME280;34101;53.430;-2.224;2023-03-20T07:20:33;100835.85;;;10.32;83.35
46682;BME280;34101;53.430;-2.224;2023-03-20T07:23:01;100836.90;;;10.16;84.25
46682;BME280;34101;53.430;-2.224;2023-03-20T07:25:28;100838.71;;;10.37;83.35
46682;BME280;34101;53.430;-2.224;2023-03-20T07:27:56;100836.99;;;10.32;83.53
46682;BME280;34101;53.430;-2.224;2023-03-20T07:30:23;100840.89;;;10.44;83.31
46682;BME280;34101;53.430;-2.224;2023-03-20T07:32:50;100836.54;;;10.40;83.49
46682;BME280;34101;53.430;-2.224;2023-03-20T07:35:18;100835.54;;;10.46;83.33
46682;BME280;34101;53.430;-2.224;2023-03-20T07:37:45;100837.73;;;10.58;83.13
46682;BME280;34101;53.430;-2.224;2023-03-20T07:40:13;100830.90;;;10.70;82.74
46682;BME280;34101;53.430;-2.224;2023-03-20T07:42:40;100832.78;;;10.74;82.82
46682;BME280;34101;53.430;-2.224;2023-03-20T07:45:08;100834.18;;;10.81;82.79
46682;BME280;34101;53.430;-2.224;2023-03-20T07:47:35;100833.82;;;10.85;82.14
46682;BME280;34101;53.430;-2.224;2023-03-20T07:50:03;100833.84;;;10.88;82.50
46682;BME280;34101;53.430;-2.224;2023-03-20T07:52:31;100832.90;;;10.77;82.62
46682;BME280;34101;53.430;-2.224;2023-03-20T07:54:58;100838.13;;;10.85;82.61
46682;BME280;34101;53.430;-2.224;2023-03-20T07:57:25;100837.40;;;10.79;82.88
46682;BME280;34101;53.430;-2.224;2023-03-20T07:59:53;100843.77;;;10.82;82.26
46682;BME280;34101;53.430;-2.224;2023-03-20T08:02:20;100845.13;;;10.72;83.33
46682;BME280;34101;53.430;-2.224;2023-03-20T08:04:48;100846.26;;;10.61;83.32
46682;BME280;34101;53.430;-2.224;2023-03-20T08:07:15;100847.66;;;10.85;83.32
46682;BME280;34101;53.430;-2.224;2023-03-20T08:09:42;100849.23;;;11.05;82.64
46682;BME280;34101;53.430;-2.224;2023-03-20T08:12:10;100850.51;;;11.14;82.48
46682;BME280;34101;53.430;-2.224;2023-03-20T08:14:38;100851.05;;;11.09;82.59
46682;BME280;34101;53.430;-2.224;2023-03-20T08:17:06;100849.49;;;11.14;82.44
46682;BME280;34101;53.430;-2.224;2023-03-20T08:19:34;100854.47;;;11.05;82.83
46682;BME280;34101;53.430;-2.224;2023-03-20T08:22:01;100856.35;;;11.15;82.38
46682;BME280;34101;53.430;-2.224;2023-03-20T08:24:29;100860.20;;;11.25;82.25
46682;BME280;34101;53.430;-2.224;2023-03-20T08:26:56;100863.54;;;11.10;82.18
46682;BME280;34101;53.430;-2.224;2023-03-20T08:29:24;100863.14;;;11.09;82.92
46682;BME280;34101;53.430;-2.224;2023-03-20T08:31:51;100861.80;;;11.24;82.65
46682;BME280;34101;53.430;-2.224;2023-03-20T08:34:18;100859.86;;;11.40;82.01
46682;BME280;34101;53.430;-2.224;2023-03-20T08:36:46;100860.36;;;11.15;83.09
46682;BME280;34101;53.430;-2.224;2023-03-20T08:39:13;100861.45;;;11.24;83.52
46682;BME280;34101;53.430;-2.224;2023-03-20T08:41:41;100865.41;;;11.45;82.87
46682;BME280;34101;53.430;-2.224;2023-03-20T08:44:08;100861.85;;;11.47;83.09
46682;BME280;34101;53.430;-2.224;2023-03-20T08:46:36;100859.95;;;11.60;82.91
46682;BME280;34101;53.430;-2.224;2023-03-20T08:49:03;100861.07;;;11.55;82.91
46682;BME280;34101;53.430;-2.224;2023-03-20T08:51:31;100857.59;;;11.64;82.60
46682;BME280;34101;53.430;-2.224;2023-03-20T08:53:59;100857.34;;;11.54;81.88
46682;BME280;34101;53.430;-2.224;2023-03-20T08:56:26;100857.36;;;11.63;82.98
46682;BME280;34101;53.430;-2.224;2023-03-20T08:58:53;100858.39;;;11.81;82.59
46682;BME280;34101;53.430;-2.224;2023-03-20T09:01:21;100860.10;;;11.93;82.17
46682;BME280;34101;53.430;-2.224;2023-03-20T09:03:49;100856.31;;;12.01;81.78
46682;BME280;34101;53.430;-2.224;2023-03-20T09:06:16;100856.63;;;12.12;81.77
46682;BME280;34101;53.430;-2.224;2023-03-20T09:08:43;100865.82;;;11.95;81.31
46682;BME280;34101;53.430;-2.224;2023-03-20T09:11:10;100867.66;;;11.96;81.63
46682;BME280;34101;53.430;-2.224;2023-03-20T09:13:38;100866.92;;;12.07;81.39
46682;BME280;34101;53.430;-2.224;2023-03-20T09:16:06;100869.18;;;12.24;81.35
46682;BME280;34101;53.430;-2.224;2023-03-20T09:18:33;100872.44;;;12.31;80.61
46682;BME280;34101;53.430;-2.224;2023-03-20T09:21:01;100873.81;;;12.36;80.59
46682;BME280;34101;53.430;-2.224;2023-03-20T09:23:28;100873.00;;;12.32;80.35
46682;BME280;34101;53.430;-2.224;2023-03-20T09:25:56;100870.09;;;12.43;80.64
46682;BME280;34101;53.430;-2.224;2023-03-20T09:28:23;100870.50;;;12.30;80.85
46682;BME280;34101;53.430;-2.224;2023-03-20T09:30:55;100871.19;;;12.27;79.84
46682;BME280;34101;53.430;-2.224;2023-03-20T09:33:22;100872.25;;;12.34;80.21
46682;BME280;34101;53.430;-2.224;2023-03-20T09:35:50;100876.57;;;12.36;80.66
46682;BME280;34101;53.430;-2.224;2023-03-20T09:38:17;100876.14;;;12.56;80.11
46682;BME280;34101;53.430;-2.224;2023-03-20T09:40:50;100877.09;;;12.25;80.77
46682;BME280;34101;53.430;-2.224;2023-03-20T09:43:29;100881.25;;;12.06;81.79
46682;BME280;34101;53.430;-2.224;2023-03-20T09:46:09;100882.93;;;12.37;80.57
46682;BME280;34101;53.430;-2.224;2023-03-20T09:48:43;100883.37;;;11.95;82.23
46682;BME280;34101;53.430;-2.224;2023-03-20T09:51:18;100886.02;;;12.41;80.85
46682;BME280;34101;53.430;-2.224;2023-03-20T09:53:50;100890.75;;;11.85;82.04
46682;BME280;34101;53.430;-2.224;2023-03-20T09:56:22;100892.70;;;12.16;81.12
46682;BME280;34101;53.430;-2.224;2023-03-20T09:58:53;100886.51;;;11.81;82.82
46682;BME280;34101;53.430;-2.224;2023-03-20T10:01:23;100887.78;;;12.33;81.70
46682;BME280;34101;53.430;-2.224;2023-03-20T10:03:54;100888.03;;;12.53;80.73
46682;BME280;34101;53.430;-2.224;2023-03-20T10:06:23;100887.94;;;12.31;80.90
46682;BME280;34101;53.430;-2.224;2023-03-20T10:08:51;100891.80;;;12.50;80.60
46682;BME280;34101;53.430;-2.224;2023-03-20T10:11:33;100889.43;;;12.71;80.63
46682;BME280;34101;53.430;-2.224;2023-03-20T10:14:15;100889.54;;;12.68;80.37
46682;BME280;34101;53.430;-2.224;2023-03-20T10:16:52;100888.56;;;12.76;79.42
46682;BME280;34101;53.430;-2.224;2023-03-20T10:19:27;100890.91;;;12.80;79.78
46682;BME280;34101;53.430;-2.224;2023-03-20T10:22:09;100887.95;;;12.56;80.04
46682;BME280;34101;53.430;-2.224;2023-03-20T10:24:40;100891.39;;;13.00;79.90
46682;BME280;34101;53.430;-2.224;2023-03-20T10:27:16;100890.27;;;13.19;79.33
46682;BME280;34101;53.430;-2.224;2023-03-20T10:29:50;100894.61;;;13.18;78.95
46682;BME280;34101;53.430;-2.224;2023-03-20T10:32:25;100894.22;;;13.25;78.90
46682;BME280;34101;53.430;-2.224;2023-03-20T10:35:03;100893.49;;;13.15;78.58
46682;BME280;34101;53.430;-2.224;2023-03-20T10:37:45;100891.34;;;13.51;78.25
46682;BME280;34101;53.430;-2.224;2023-03-20T10:40:26;100885.63;;;13.74;77.44
46682;BME280;34101;53.430;-2.224;2023-03-20T10:42:58;100889.17;;;13.80;76.91
46682;BME280;34101;53.430;-2.224;2023-03-20T10:45:32;100891.53;;;13.80;77.14
46682;BME280;34101;53.430;-2.224;2023-03-20T10:48:05;100893.42;;;13.98;77.01
46682;BME280;34101;53.430;-2.224;2023-03-20T10:50:40;100893.69;;;13.85;76.28
46682;BME280;34101;53.430;-2.224;2023-03-20T10:53:22;100892.10;;;13.38;77.95
46682;BME280;34101;53.430;-2.224;2023-03-20T10:55:50;100888.13;;;13.62;77.31
46682;BME280;34101;53.430;-2.224;2023-03-20T10:58:22;100885.79;;;13.80;76.29
46682;BME280;34101;53.430;-2.224;2023-03-20T11:00:50;100884.42;;;13.80;76.43
46682;BME280;34101;53.430;-2.224;2023-03-20T11:03:21;100881.73;;;13.87;76.43
46682;BME280;34101;53.430;-2.224;2023-03-20T11:05:53;100883.76;;;14.10;75.68
46682;BME280;34101;53.430;-2.224;2023-03-20T11:08:23;100881.70;;;14.09;75.81
46682;BME280;34101;53.430;-2.224;2023-03-20T11:10:58;100880.94;;;13.98;75.80
46682;BME280;34101;53.430;-2.224;2023-03-20T11:13:30;100877.62;;;13.98;76.30
46682;BME280;34101;53.430;-2.224;2023-03-20T11:16:09;100874.20;;;14.10;76.14
46682;BME280;34101;53.430;-2.224;2023-03-20T11:18:40;100872.29;;;14.21;74.64
46682;BME280;34101;53.430;-2.224;2023-03-20T11:21:16;100869.67;;;14.09;75.35
46682;BME280;34101;53.430;-2.224;2023-03-20T11:23:44;100869.75;;;14.08;75.47
46682;BME280;34101;53.430;-2.224;2023-03-20T11:26:13;100868.31;;;14.26;74.57
46682;BME280;34101;53.430;-2.224;2023-03-20T11:28:46;100867.88;;;13.81;75.71
46682;BME280;34101;53.430;-2.224;2023-03-20T11:31:18;100863.02;;;13.94;75.74
46682;BME280;34101;53.430;-2.224;2023-03-20T11:33:51;100864.37;;;14.44;74.27
46682;BME280;34101;53.430;-2.224;2023-03-20T11:36:23;100862.56;;;14.24;74.43
46682;BME280;34101;53.430;-2.224;2023-03-20T11:38:52;100866.05;;;14.42;73.83
46682;BME280;34101;53.430;-2.224;2023-03-20T11:41:25;100861.66;;;14.63;73.38
46682;BME280;34101;53.430;-2.224;2023-03-20T11:43:53;100856.16;;;14.75;73.60
46682;BME280;34101;53.430;-2.224;2023-03-20T11:46:22;100856.04;;;14.95;72.87
46682;BME280;34101;53.430;-2.224;2023-03-20T11:49:18;100852.98;;;15.24;72.67
46682;BME280;34101;53.430;-2.224;2023-03-20T11:51:46;100856.07;;;15.09;72.57
46682;BME280;34101;53.430;-2.224;2023-03-20T11:54:17;100856.15;;;15.12;72.46
46682;BME280;34101;53.430;-2.224;2023-03-20T11:56:55;100854.37;;;15.11;70.70
46682;BME280;34101;53.430;-2.224;2023-03-20T11:59:28;100851.19;;;14.91;71.85
46682;BME280;34101;53.430;-2.224;2023-03-20T12:01:57;100851.00;;;15.22;71.56
46682;BME280;34101;53.430;-2.224;2023-03-20T12:04:28;100847.02;;;15.79;69.55
46682;BME280;34101;53.430;-2.224;2023-03-20T12:06:57;100844.63;;;14.96;71.19
46682;BME280;34101;53.430;-2.224;2023-03-20T12:09:36;100838.55;;;15.51;70.49
46682;BME280;34101;53.430;-2.224;2023-03-20T12:12:11;100837.03;;;15.05;70.64
46682;BME280;34101;53.430;-2.224;2023-03-20T12:14:44;100835.47;;;15.52;69.83
46682;BME280;34101;53.430;-2.224;2023-03-20T12:17:28;100837.85;;;15.44;69.26
46682;BME280;34101;53.430;-2.224;2023-03-20T12:20:04;100836.15;;;15.05;71.41
46682;BME280;34101;53.430;-2.224;2023-03-20T12:22:36;100833.96;;;15.37;70.14
46682;BME280;34101;53.430;-2.224;2023-03-20T12:25:15;100834.25;;;15.37;70.09
46682;BME280;34101;53.430;-2.224;2023-03-20T12:27:48;100830.85;;;15.44;69.67
46682;BME280;34101;53.430;-2.224;2023-03-20T12:30:25;100833.06;;;15.02;69.92
46682;BME280;34101;53.430;-2.224;2023-03-20T12:33:02;100827.60;;;15.22;70.14
46682;BME280;34101;53.430;-2.224;2023-03-20T12:35:33;100831.27;;;15.45;69.51
46682;BME280;34101;53.430;-2.224;2023-03-20T12:38:02;100823.58;;;15.21;69.78
46682;BME280;34101;53.430;-2.224;2023-03-20T12:40:37;100825.09;;;15.54;69.14
46682;BME280;34101;53.430;-2.224;2023-03-20T12:43:13;100822.92;;;15.43;69.45
46682;BME280;34101;53.430;-2.224;2023-03-20T12:45:45;100820.20;;;15.63;68.66
46682;BME280;34101;53.430;-2.224;2023-03-20T12:48:46;100818.89;;;15.00;69.32
46682;BME280;34101;53.430;-2.224;2023-03-20T12:51:21;100812.42;;;15.10;69.31
46682;BME280;34101;53.430;-2.224;2023-03-20T12:54:01;100811.04;;;15.06;69.56
46682;BME280;34101;53.430;-2.224;2023-03-20T12:56:51;100812.19;;;14.78;70.06
46682;BME280;34101;53.430;-2.224;2023-03-20T12:59:28;100815.77;;;14.86;70.29
46682;BME280;34101;53.430;-2.224;2023-03-20T13:02:12;100815.43;;;14.96;69.92
46682;BME280;34101;53.430;-2.224;2023-03-20T13:04:52;100811.81;;;14.71;70.63
46682;BME280;34101;53.430;-2.224;2023-03-20T13:07:32;100808.39;;;14.97;69.96
46682;BME280;34101;53.430;-2.224;2023-03-20T13:10:14;100804.57;;;15.33;69.10